Country Club Heights, Kentucky
Current Conditions -  °F | °C
As of 12:35 AM on Friday 28 Nov 2014 (Local Time) from KFGX Reporting Station
Overcast Overcast  
Wind Chill: 21°   Ceiling: 3200
Heat Index: 28°   Visibility: 10mi
Dew Point: 21°   Wind: 7mph
Humidity: 76%   Direction: 290°WNW
Pressure: 30.39"   Gusts: NA
Location:  38.585°N, 83.7789°W
Report Text: KFGX 280535Z AUTO 29006KT 10SM SCT019 SCT025 OVC032 M02/M06 A3039 RMK AO2 T10231060
Loading
Personal Weather Stations






























Interactive Weather Map New forecast layout! Learn more

10-Day Weather Forecast

Advertisements
Track Severe Weather on mobile